-5.86C
пасмурно
пасмурно
Дата и времяТемператураДавление, мм рт.ст.Влажность, %Осадки
МинимумМаксимум
04.12.2022 14:00-5.88C-5.88C77795небольшой снег
04.12.2022 17:00-6.65C-6.14C77795небольшой снег
04.12.2022 20:00-8.42C-7.57C77895пасмурно
04.12.2022 23:00-11.6C-11.6C78097пасмурно
05.12.2022 02:00-16.34C-16.34C780100пасмурно
05.12.2022 05:00-19.53C-19.53C781100пасмурно
05.12.2022 08:00-19.07C-19.07C78199пасмурно
05.12.2022 11:00-16.21C-16.21C78195пасмурно
05.12.2022 14:00-13.77C-13.77C78194пасмурно
05.12.2022 17:00-15.7C-15.7C78097пасмурно
05.12.2022 20:00-17.07C-17.07C78098пасмурно
05.12.2022 23:00-18.64C-18.64C78099пасмурно
06.12.2022 02:00-18.93C-18.93C77999пасмурно
06.12.2022 05:00-18.41C-18.41C77998облачно с прояснениями
06.12.2022 08:00-18.02C-18.02C77798пасмурно
06.12.2022 11:00-16.42C-16.42C77796пасмурно
06.12.2022 14:00-13.81C-13.81C77793облачно с прояснениями
06.12.2022 17:00-15.75C-15.75C77796облачно с прояснениями
06.12.2022 20:00-16.77C-16.77C77797облачно с прояснениями
06.12.2022 23:00-17.39C-17.39C77698облачно с прояснениями
07.12.2022 02:00-17.8C-17.8C77598облачно с прояснениями
07.12.2022 05:00-18.12C-18.12C77498облачно с прояснениями
07.12.2022 08:00-17.98C-17.98C77498переменная облачность
07.12.2022 11:00-16.11C-16.11C77394переменная облачность
07.12.2022 14:00-13.09C-13.09C77188переменная облачность
07.12.2022 17:00-14.02C-14.02C77089переменная облачность
07.12.2022 20:00-13.55C-13.55C76888облачно с прояснениями
07.12.2022 23:00-12.26C-12.26C76785пасмурно
08.12.2022 02:00-10.13C-10.13C76690пасмурно
08.12.2022 05:00-10.26C-10.26C76693пасмурно
08.12.2022 08:00-11.48C-11.48C76694пасмурно
08.12.2022 11:00-11.96C-11.96C76795облачно с прояснениями
08.12.2022 14:00-10.25C-10.25C76792облачно с прояснениями
08.12.2022 17:00-11.42C-11.42C76894облачно с прояснениями
08.12.2022 20:00-10.21C-10.21C76893пасмурно
08.12.2022 23:00-7.9C-7.9C76794пасмурно
09.12.2022 02:00-9.22C-9.22C76885пасмурно
09.12.2022 05:00-10.13C-10.13C76885пасмурно
09.12.2022 08:00-10.58C-10.58C76985небольшая облачность
09.12.2022 11:00-11.05C-11.05C76987небольшая облачность
Дата и время наблюдения: 04.12.2022 12:39:36